Time;durP1;ratioP1;P1;durP2;ratioP2;P2;SDS_P1;SDS_P2;PMS_P1;PMS_P2;Temp;Humidity;BMP_temperature;BMP_pressure;BME280_temperature;BME280_humidity;BME280_pressure;Samples;Min_cycle;Max_cycle;Signal;HPM_P1;HPM_P2
2021/12/14 00:00:43;;;;;;;32.50;20.23;;;;;;;7.07;100.00;101810.59;7398339;19;20415;-47
2021/12/14 00:03:14;;;;;;;34.20;20.33;;;;;;;7.10;100.00;101803.16;7403608;19;20412;-44
2021/12/14 00:05:44;;;;;;;40.13;21.90;;;;;;;7.12;100.00;101792.97;7397521;19;20420;-46
2021/12/14 00:08:15;;;;;;;31.47;20.33;;;;;;;7.09;100.00;101808.16;7401143;19;20425;-46
2021/12/14 00:10:58;;;;;;;34.90;21.03;;;;;;;7.03;100.00;101798.34;7397197;19;20432;-46
2021/12/14 00:13:45;;;;;;;37.47;20.33;;;;;;;7.01;100.00;101799.91;7402890;19;20395;-48
2021/12/14 00:16:16;;;;;;;34.80;21.80;;;;;;;6.99;100.00;101797.19;7395818;19;20511;-45
2021/12/14 00:18:46;;;;;;;36.17;20.93;;;;;;;7.01;100.00;101799.91;7403085;19;20396;-50
2021/12/14 00:21:20;;;;;;;36.47;21.70;;;;;;;6.99;100.00;101791.19;7397106;19;20407;-46
2021/12/14 00:26:36;;;;;;;35.13;20.97;;;;;;;6.97;100.00;101783.38;7395873;19;20426;-48
2021/12/14 00:29:10;;;;;;;34.77;20.70;;;;;;;6.94;100.00;101782.28;7402781;19;20394;-45
2021/12/14 00:31:39;;;;;;;35.47;21.10;;;;;;;6.94;100.00;101772.00;7397024;19;20417;-44
2021/12/14 00:34:09;;;;;;;34.13;20.97;;;;;;;6.97;100.00;101774.81;7401453;19;20383;-43
2021/12/14 00:36:40;;;;;;;37.10;20.30;;;;;;;6.89;100.00;101766.53;7395221;19;20896;-45
2021/12/14 00:39:11;;;;;;;38.13;21.60;;;;;;;6.92;100.00;101774.44;7402316;19;20379;-47
2021/12/14 00:41:42;;;;;;;32.00;21.07;;;;;;;6.89;100.00;101771.69;7397080;19;20430;-46
2021/12/14 00:44:14;;;;;;;33.03;20.27;;;;;;;6.91;100.00;101779.50;7402304;19;20847;-46
2021/12/14 00:46:44;;;;;;;37.83;22.13;;;;;;;6.92;100.00;101779.59;7395088;19;20890;-44
2021/12/14 00:49:15;;;;;;;36.53;20.50;;;;;;;6.94;100.00;101774.56;7401981;19;20656;-44
2021/12/14 00:51:45;;;;;;;32.80;20.80;;;;;;;6.91;100.00;101776.94;7392572;19;20485;-43
2021/12/14 00:54:16;;;;;;;32.37;18.23;;;;;;;6.88;100.00;101783.59;7401945;19;20793;-44
2021/12/14 00:56:47;;;;;;;37.53;21.37;;;;;;;6.92;100.00;101778.72;7394672;19;20456;-45
2021/12/14 00:59:20;;;;;;;34.67;19.83;;;;;;;6.91;100.00;101780.38;7401484;19;20398;-44
2021/12/14 01:01:53;;;;;;;37.40;20.50;;;;;;;6.93;100.00;101780.50;7401158;19;20492;-47
2021/12/14 01:04:30;;;;;;;29.83;17.40;;;;;;;6.91;100.00;101787.19;7396765;19;20679;-46
2021/12/14 01:07:00;;;;;;;32.07;18.20;;;;;;;6.94;100.00;101792.53;7399529;19;20416;-47
2021/12/14 01:09:33;;;;;;;35.97;18.73;;;;;;;6.93;100.00;101790.75;7395434;19;20383;-46
2021/12/14 01:12:08;;;;;;;32.43;19.03;;;;;;;6.92;100.00;101810.38;7397864;19;20398;-47
2021/12/14 01:14:47;;;;;;;33.30;19.47;;;;;;;6.91;100.00;101803.47;7396124;19;20399;-47
2021/12/14 01:17:38;;;;;;;34.10;19.97;;;;;;;6.97;100.00;101803.03;7399211;19;20432;-50
2021/12/14 01:20:13;;;;;;;32.70;18.50;;;;;;;6.93;100.00;101801.00;7395252;19;20891;-46
2021/12/14 01:22:46;;;;;;;28.70;18.87;;;;;;;6.94;100.00;101805.34;7400863;19;20389;-45
2021/12/14 01:25:19;;;;;;;33.87;19.10;;;;;;;6.97;100.00;101797.91;7393741;19;20481;-47
2021/12/14 01:27:53;;;;;;;38.80;19.80;;;;;;;6.95;100.00;101790.09;7398127;19;20434;-46
2021/12/14 01:30:32;;;;;;;41.87;25.07;;;;;;;7.01;100.00;101785.41;7394602;19;20429;-46
2021/12/14 01:33:05;;;;;;;31.77;18.97;;;;;;;6.95;100.00;101778.91;7400522;19;20396;-46
2021/12/14 01:35:39;;;;;;;40.90;23.00;;;;;;;7.06;100.00;101778.03;7394408;19;20472;-46
2021/12/14 01:38:31;;;;;;;32.50;18.27;;;;;;;7.01;100.00;101779.38;7398955;19;20481;-46
2021/12/14 01:41:05;;;;;;;36.47;20.50;;;;;;;7.09;100.00;101777.38;7394525;19;20581;-43
2021/12/14 01:43:45;;;;;;;29.47;18.30;;;;;;;6.99;100.00;101780.94;7400119;19;20455;-46
2021/12/14 01:46:21;;;;;;;30.80;19.20;;;;;;;7.05;100.00;101780.47;7392393;19;20424;-46
2021/12/14 01:48:52;;;;;;;28.13;17.20;;;;;;;6.95;100.00;101784.06;7400235;19;20382;-47
2021/12/14 01:51:22;;;;;;;45.93;21.70;;;;;;;7.06;100.00;101787.38;7392722;19;20441;-45
2021/12/14 01:53:54;;;;;;;28.93;17.47;;;;;;;6.94;100.00;101782.28;7399901;19;20390;-47
2021/12/14 01:56:28;;;;;;;25.70;16.57;;;;;;;6.91;100.00;101771.78;7397574;19;20451;-45
2021/12/14 01:59:00;;;;;;;34.70;19.57;;;;;;;7.02;100.00;101768.31;7399710;19;20454;-44
2021/12/14 02:01:37;;;;;;;37.07;20.63;;;;;;;7.00;100.00;101763.09;7393595;19;20438;-45
2021/12/14 02:04:12;;;;;;;33.80;18.80;;;;;;;7.08;100.00;101758.50;7398682;19;20407;-44
2021/12/14 02:06:41;;;;;;;25.63;16.17;;;;;;;6.93;100.00;101735.22;7393039;19;20440;-43
2021/12/14 02:09:14;;;;;;;30.10;18.07;;;;;;;6.95;100.00;101730.16;7403435;19;20413;-43
2021/12/14 02:11:47;;;;;;;28.30;17.60;;;;;;;6.93;100.00;101736.88;7393098;19;20438;-46
2021/12/14 02:14:17;;;;;;;33.73;18.30;;;;;;;6.92;100.00;101724.81;7399252;19;20459;-44
2021/12/14 02:16:50;;;;;;;29.90;17.17;;;;;;;6.86;100.00;101715.91;7396469;19;20429;-46
2021/12/14 02:19:20;;;;;;;34.17;16.67;;;;;;;6.85;100.00;101724.38;7398703;19;20388;-48
2021/12/14 02:21:54;;;;;;;29.67;17.00;;;;;;;6.84;100.00;101722.59;7398320;19;20893;-45
2021/12/14 02:24:25;;;;;;;32.10;18.47;;;;;;;6.91;100.00;101715.34;7392712;19;20389;-44
2021/12/14 02:26:55;;;;;;;32.07;17.27;;;;;;;6.86;100.00;101705.63;7397147;19;20438;-46
2021/12/14 02:29:27;;;;;;;30.53;18.90;;;;;;;6.91;100.00;101699.97;7392790;19;20386;-46
2021/12/14 02:32:03;;;;;;;32.43;18.67;;;;;;;6.89;100.00;101703.28;7397137;19;20392;-45
2021/12/14 02:34:32;;;;;;;28.80;17.87;;;;;;;6.88;100.00;101693.81;7393462;19;20401;-46
2021/12/14 02:37:05;;;;;;;33.93;18.20;;;;;;;6.87;100.00;101699.72;7394273;19;20485;-46
2021/12/14 02:42:22;;;;;;;28.20;13.87;;;;;;;6.87;100.00;101686.91;7397107;19;20744;-47
2021/12/14 02:44:55;;;;;;;30.13;17.17;;;;;;;6.86;100.00;101677.41;7392512;19;20484;-45
2021/12/14 02:47:25;;;;;;;34.33;19.33;;;;;;;6.93;100.00;101675.28;7396525;19;20419;-45
2021/12/14 02:49:55;;;;;;;25.00;12.33;;;;;;;6.87;100.00;101686.91;7392426;19;20864;-48
2021/12/14 02:52:33;;;;;;;30.20;17.43;;;;;;;6.84;100.00;101693.47;7395764;19;20426;-48
2021/12/14 02:55:07;;;;;;;28.33;16.03;;;;;;;6.86;100.00;101691.91;7392694;19;20506;-45
2021/12/14 02:57:39;;;;;;;27.13;13.20;;;;;;;6.83;100.00;101687.44;7396396;19;20408;-47
2021/12/14 03:00:11;;;;;;;21.30;12.20;;;;;;;6.86;100.00;101679.97;7391978;19;20701;-48
2021/12/14 03:02:41;;;;;;;28.70;15.33;;;;;;;6.84;100.00;101684.13;7397568;19;20390;-50
2021/12/14 03:05:15;;;;;;;27.37;15.90;;;;;;;6.86;100.00;101674.84;7392377;19;20416;-45
2021/12/14 03:07:50;;;;;;;29.77;18.27;;;;;;;6.89;100.00;101681.88;7396765;19;20425;-47
2021/12/14 03:10:34;;;;;;;34.23;19.00;;;;;;;6.88;100.00;101686.09;7391668;19;20431;-46
2021/12/14 03:13:07;;;;;;;28.90;17.57;;;;;;;6.85;100.00;101691.03;7395802;19;20401;-44
2021/12/14 03:15:46;;;;;;;31.33;17.10;;;;;;;6.84;100.00;101676.44;7390700;19;20412;-46
2021/12/14 03:18:17;;;;;;;31.67;13.47;;;;;;;6.82;100.00;101677.97;7395509;19;20421;-45
2021/12/14 03:20:49;;;;;;;27.10;14.20;;;;;;;6.84;100.00;101680.66;7391020;19;20421;-44
2021/12/14 03:23:26;;;;;;;35.37;16.50;;;;;;;6.82;100.00;101667.72;7396142;19;20658;-46
2021/12/14 03:25:58;;;;;;;27.70;16.80;;;;;;;6.88;100.00;101680.97;7391015;19;20425;-45
2021/12/14 03:28:30;;;;;;;26.50;16.30;;;;;;;6.84;100.00;101686.69;7395638;19;20415;-44
2021/12/14 03:31:08;;;;;;;29.50;18.30;;;;;;;6.86;100.00;101686.78;7391227;19;20502;-43
2021/12/14 03:33:43;;;;;;;30.40;16.80;;;;;;;6.89;100.00;101685.31;7397143;19;20409;-43
2021/12/14 04:09:17;;;;;;;25.43;13.90;;;;;;;6.80;100.00;101682.09;7401309;19;20340;-44
2021/12/14 04:11:47;;;;;;;23.23;13.50;;;;;;;6.80;100.00;101676.97;7401493;19;20501;-46
2021/12/14 04:14:18;;;;;;;33.23;19.47;;;;;;;6.80;100.00;101679.53;7403227;19;20460;-47
2021/12/14 04:16:50;;;;;;;32.60;16.77;;;;;;;6.77;100.00;101686.13;7401024;19;20438;-43
2021/12/14 04:19:27;;;;;;;33.03;17.37;;;;;;;6.77;100.00;101681.88;7401249;19;20853;-45
2021/12/14 04:21:58;;;;;;;28.73;16.03;;;;;;;6.75;100.00;101675.75;7402566;19;20929;-44
2021/12/14 04:24:36;;;;;;;32.50;17.97;;;;;;;6.76;100.00;101674.97;7398129;19;20702;-44
2021/12/14 04:27:08;;;;;;;27.57;15.40;;;;;;;6.76;100.00;101677.53;7400857;19;20479;-48
2021/12/14 04:29:37;;;;;;;28.10;16.27;;;;;;;6.78;100.00;101669.94;7397665;19;20461;-45
2021/12/14 04:32:10;;;;;;;25.83;14.47;;;;;;;6.76;100.00;101659.56;7401419;19;20461;-45
2021/12/14 04:34:40;;;;;;;30.37;16.63;;;;;;;6.74;100.00;101662.06;7397057;19;20403;-47
2021/12/14 04:37:10;;;;;;;29.33;15.07;;;;;;;6.73;100.00;101659.38;7400699;19;20478;-44
2021/12/14 04:39:47;;;;;;;29.10;17.30;;;;;;;6.73;100.00;101664.50;7394891;19;20719;-44
2021/12/14 04:53:33;;;;;;;31.13;17.30;;;;;;;6.70;100.00;101669.38;7400188;19;20853;-47
2021/12/14 04:56:07;;;;;;;26.50;14.90;;;;;;;6.70;100.00;101664.25;7394099;19;20414;-43
2021/12/14 04:58:40;;;;;;;33.63;15.30;;;;;;;6.70;100.00;101666.81;7402013;19;20408;-46
2021/12/14 05:01:12;;;;;;;31.17;16.87;;;;;;;6.72;100.00;101662.72;7394001;19;20416;-45
2021/12/14 05:03:45;;;;;;;24.47;13.33;;;;;;;6.71;100.00;101666.03;7401570;19;20417;-44
2021/12/14 05:06:22;;;;;;;27.30;15.10;;;;;;;6.73;100.00;101667.06;7394668;19;20431;-44
2021/12/14 05:11:38;;;;;;;24.90;15.10;;;;;;;6.73;100.00;101661.94;7395603;19;20406;-46
2021/12/14 05:14:11;;;;;;;23.00;14.50;;;;;;;6.73;100.00;101657.69;7401187;19;20857;-45
2021/12/14 05:16:41;;;;;;;24.93;14.33;;;;;;;6.70;100.00;101660.03;7393386;19;20491;-45
2021/12/14 05:19:32;;;;;;;24.10;13.97;;;;;;;6.72;100.00;101662.72;7395544;19;20396;-45
2021/12/14 05:22:05;;;;;;;22.00;10.73;;;;;;;6.73;100.00;101655.13;7400651;19;20910;-46
2021/12/14 05:24:34;;;;;;;26.10;12.60;;;;;;;6.71;100.00;101653.22;7395881;19;20390;-46
2021/12/14 05:27:08;;;;;;;29.33;16.17;;;;;;;6.74;100.00;101653.44;7399040;19;20409;-48
2021/12/14 05:29:39;;;;;;;22.80;13.20;;;;;;;6.73;100.00;101654.25;7395629;19;20386;-45
2021/12/14 05:32:11;;;;;;;28.13;15.83;;;;;;;6.76;100.00;101654.44;7400091;19;20389;-43
2021/12/14 05:34:41;;;;;;;26.20;14.80;;;;;;;6.70;100.00;101654.91;7394390;19;20415;-47
2021/12/14 05:37:13;;;;;;;21.40;11.67;;;;;;;6.67;100.00;101654.66;7398986;19;20573;-47
2021/12/14 05:39:57;;;;;;;25.57;12.57;;;;;;;6.67;100.00;101658.94;7394795;19;20720;-45
2021/12/14 05:45:14;;;;;;;22.80;13.83;;;;;;;6.73;100.00;101655.13;7394296;19;20448;-47
2021/12/14 05:47:49;;;;;;;19.13;10.30;;;;;;;6.66;100.00;101659.72;7398557;19;20428;-43
2021/12/14 05:50:21;;;;;;;20.77;11.57;;;;;;;6.67;100.00;101651.22;7394263;19;20700;-42
2021/12/14 05:52:50;;;;;;;25.83;12.80;;;;;;;6.68;100.00;101656.47;7398610;19;20683;-46
2021/12/14 05:55:24;;;;;;;26.10;16.17;;;;;;;6.71;100.00;101653.22;7393992;19;20430;-46
2021/12/14 05:57:58;;;;;;;25.30;12.70;;;;;;;6.70;100.00;101654.00;7402991;19;20440;-49
2021/12/14 06:00:29;;;;;;;23.70;12.50;;;;;;;6.71;100.00;101650.66;7393901;19;20576;-47
2021/12/14 06:03:01;;;;;;;24.40;14.43;;;;;;;6.73;100.00;101643.97;7399845;19;20846;-45
2021/12/14 06:05:32;;;;;;;18.83;10.23;;;;;;;6.69;100.00;101644.53;7393255;19;20404;-45
2021/12/14 06:08:02;;;;;;;25.60;15.20;;;;;;;6.67;100.00;101648.66;7397992;19;20427;-47
2021/12/14 06:10:32;;;;;;;21.70;13.30;;;;;;;6.58;100.00;101660.06;7392468;19;20424;-45
2021/12/14 06:13:04;;;;;;;25.03;12.80;;;;;;;6.54;100.00;101668.28;7397619;19;20452;-44
2021/12/14 06:15:33;;;;;;;24.60;13.90;;;;;;;6.56;100.00;101664.16;7392653;19;20421;-45
2021/12/14 06:18:03;;;;;;;24.93;13.43;;;;;;;6.49;100.00;101659.38;7397744;19;20479;-46
2021/12/14 06:20:36;;;;;;;25.60;14.60;;;;;;;6.43;100.00;101659.84;7393978;19;20412;-45
2021/12/14 06:23:05;;;;;;;21.50;11.07;;;;;;;6.32;100.00;101656.44;7399071;19;20386;-45
2021/12/14 06:25:35;;;;;;;21.57;12.10;;;;;;;6.24;100.00;101660.13;7392119;19;20423;-43
2021/12/14 06:28:07;;;;;;;32.40;18.70;;;;;;;6.29;100.00;101656.25;7397465;19;20773;-49
2021/12/14 06:30:41;;;;;;;30.30;15.00;;;;;;;6.29;100.00;101656.25;7391736;19;20429;-48
2021/12/14 06:33:12;;;;;;;27.60;14.97;;;;;;;6.31;100.00;101659.81;7397891;19;20470;-44
2021/12/14 06:35:46;;;;;;;31.63;12.73;;;;;;;6.33;100.00;101659.94;7392078;19;20424;-47
2021/12/14 06:38:27;;;;;;;29.50;15.90;;;;;;;6.35;100.00;101666.94;7396936;19;20435;-50
2021/12/14 06:41:02;;;;;;;28.63;13.90;;;;;;;6.35;100.00;101666.03;7392478;19;20422;-44
2021/12/14 06:43:37;;;;;;;29.13;15.83;;;;;;;6.33;100.00;101658.25;7397855;19;20444;-46
2021/12/14 06:46:08;;;;;;;32.93;18.43;;;;;;;6.30;100.00;101663.16;7391646;19;20471;-44
2021/12/14 06:48:40;;;;;;;38.20;19.47;;;;;;;6.27;100.00;101674.84;7398300;19;20396;-46
2021/12/14 06:51:14;;;;;;;34.70;16.93;;;;;;;6.16;100.00;101663.81;7390691;19;20413;-44
2021/12/14 06:53:49;;;;;;;28.17;13.50;;;;;;;6.10;100.00;101663.34;7397017;19;20395;-48
2021/12/14 06:56:20;;;;;;;39.40;20.97;;;;;;;6.14;100.00;101675.59;7391683;19;20420;-48
2021/12/14 06:58:55;;;;;;;43.13;22.10;;;;;;;6.08;100.00;101669.25;7398003;19;20905;-47
2021/12/14 07:01:27;;;;;;;40.83;22.17;;;;;;;6.09;100.00;101670.13;7391887;19;20410;-43
2021/12/14 07:04:01;;;;;;;37.43;19.90;;;;;;;6.11;100.00;101665.13;7397943;19;20395;-47
2021/12/14 07:06:34;;;;;;;36.70;18.00;;;;;;;6.11;100.00;101675.38;7391113;19;20430;-45
2021/12/14 07:09:08;;;;;;;39.77;20.37;;;;;;;6.16;100.00;101663.81;7397392;19;20392;-50
2021/12/14 07:11:39;;;;;;;44.87;19.97;;;;;;;6.11;100.00;101671.16;7389942;19;20488;-44
2021/12/14 07:14:35;;;;;;;45.27;23.30;;;;;;;6.17;100.00;101666.50;7396500;19;20460;-44
2021/12/14 07:17:11;;;;;;;39.10;19.60;;;;;;;6.16;100.00;101663.81;7396223;19;20411;-44
2021/12/14 07:19:44;;;;;;;44.23;21.33;;;;;;;6.18;100.00;101657.13;7391695;19;20391;-43
2021/12/14 07:22:40;;;;;;;41.73;19.50;;;;;;;6.18;100.00;101667.38;7397175;19;20865;-48
2021/12/14 07:25:12;;;;;;;36.40;16.37;;;;;;;6.15;100.00;101673.16;7399438;19;20419;-47
2021/12/14 07:27:42;;;;;;;83.00;20.60;;;;;;;6.19;100.00;101664.94;7402408;19;20475;-48
2021/12/14 07:30:24;;;;;;;38.40;19.60;;;;;;;6.22;100.00;101680.50;7397105;19;20432;-45
2021/12/14 07:33:00;;;;;;;23.63;13.27;;;;;;;6.21;100.00;101677.88;7401711;19;20368;-45
2021/12/14 07:35:40;;;;;;;37.77;19.67;;;;;;;6.26;100.00;101681.63;7397311;19;20421;-43
2021/12/14 07:38:22;;;;;;;39.93;21.50;;;;;;;6.27;100.00;101698.81;7402090;19;20433;-48
2021/12/14 07:40:54;;;;;;;45.60;18.67;;;;;;;6.21;100.00;101700.94;7398972;19;20412;-44
2021/12/14 07:43:27;;;;;;;41.87;19.40;;;;;;;6.21;100.00;101708.63;7404014;19;20391;-48
2021/12/14 07:45:59;;;;;;;43.07;20.37;;;;;;;6.20;100.00;101706.81;7398861;19;20446;-45
2021/12/14 07:48:47;;;;;;;41.50;22.00;;;;;;;6.22;100.00;101710.41;7400882;19;20428;-44
2021/12/14 07:51:18;;;;;;;42.23;20.97;;;;;;;6.21;100.00;101716.31;7397928;19;20422;-46
2021/12/14 07:53:50;;;;;;;46.70;22.90;;;;;;;6.33;100.00;101719.78;7403038;19;20384;-44
2021/12/14 07:56:33;;;;;;;44.13;23.80;;;;;;;6.39;100.00;101723.56;7397292;19;20768;-44
2021/12/14 07:59:06;;;;;;;47.63;22.60;;;;;;;6.24;100.00;101713.97;7403966;19;20415;-46
2021/12/14 08:01:38;;;;;;;42.00;21.60;;;;;;;6.28;100.00;101718.53;7397162;19;20427;-46
2021/12/14 08:04:12;;;;;;;53.77;23.97;;;;;;;6.24;100.00;101719.09;7404429;19;20392;-46
2021/12/14 08:06:59;;;;;;;43.83;20.23;;;;;;;6.26;100.00;101719.19;7396320;19;20425;-43
2021/12/14 08:09:50;;;;;;;43.17;18.33;;;;;;;6.18;100.00;101719.53;7397075;19;20389;-48
2021/12/14 08:12:35;;;;;;;49.10;22.33;;;;;;;6.18;100.00;101722.09;7403378;19;20393;-43
2021/12/14 08:15:12;;;;;;;44.37;18.90;;;;;;;6.16;100.00;101718.50;7396564;19;20422;-43
2021/12/14 08:17:45;;;;;;;39.63;18.17;;;;;;;6.17;100.00;101727.09;7400757;19;20415;-44
2021/12/14 08:20:24;;;;;;;25.50;11.63;;;;;;;6.12;100.00;101728.41;7396918;19;20414;-44
2021/12/14 08:22:57;;;;;;;43.20;20.93;;;;;;;6.19;100.00;101725.53;7401851;19;20391;-43
2021/12/14 08:25:30;;;;;;;63.43;24.30;;;;;;;6.19;100.00;101715.28;7395797;19;20416;-44
2021/12/14 08:28:03;;;;;;;59.43;26.30;;;;;;;6.22;100.00;101708.72;7401024;19;20495;-43
2021/12/14 08:30:34;;;;;;;53.23;23.10;;;;;;;6.19;100.00;101710.16;7396752;19;20510;-45
2021/12/14 08:33:07;;;;;;;58.03;25.07;;;;;;;6.24;100.00;101706.25;7402848;19;20391;-43
2021/12/14 08:35:43;;;;;;;56.97;24.57;;;;;;;6.23;100.00;101707.06;7391439;19;20979;-47
2021/12/14 08:38:13;;;;;;;66.63;27.20;;;;;;;6.26;100.00;101702.13;7400474;19;20413;-44
2021/12/14 08:40:46;;;;;;;43.30;19.13;;;;;;;6.18;100.00;101713.50;7395504;19;20408;-47
2021/12/14 08:43:24;;;;;;;57.87;23.33;;;;;;;6.18;100.00;101708.38;7402361;19;20386;-44
2021/12/14 08:45:57;;;;;;;52.20;20.60;;;;;;;6.16;100.00;101720.19;7395974;19;20744;-47
2021/12/14 08:48:32;;;;;;;58.20;24.07;;;;;;;6.12;100.00;101715.59;7400056;19;20877;-43
2021/12/14 08:51:12;;;;;;;65.43;32.07;;;;;;;6.22;100.00;101720.66;7396207;19;20423;-44
2021/12/14 08:53:44;;;;;;;63.10;25.73;;;;;;;6.17;100.00;101721.97;7401581;19;20443;-48
2021/12/14 08:56:15;;;;;;;60.87;28.27;;;;;;;6.20;100.00;101727.31;7395196;19;21256;-46
2021/12/14 08:58:46;;;;;;;53.87;24.73;;;;;;;6.15;100.00;101733.78;7400488;19;20392;-44
2021/12/14 09:01:20;;;;;;;54.00;25.47;;;;;;;6.15;100.00;101739.78;7396206;19;20411;-48
2021/12/14 09:03:56;;;;;;;73.23;28.00;;;;;;;6.15;100.00;101749.16;7401569;19;20397;-45
2021/12/14 09:06:30;;;;;;;60.60;27.17;;;;;;;6.19;100.00;101740.91;7394814;19;20414;-45
2021/12/14 09:09:02;;;;;;;62.10;30.27;;;;;;;6.19;100.00;101738.34;7401513;19;20400;-44
2021/12/14 09:11:35;;;;;;;67.07;27.50;;;;;;;6.17;100.00;101737.34;7395150;19;20685;-45
2021/12/14 09:14:06;;;;;;;59.53;27.23;;;;;;;6.21;100.00;101736.81;7400926;19;20844;-47
2021/12/14 09:16:35;;;;;;;71.17;28.63;;;;;;;6.19;100.00;101740.91;7394047;19;20488;-47
2021/12/14 09:19:11;;;;;;;66.40;26.33;;;;;;;6.18;100.00;101739.13;7400270;19;20383;-44
2021/12/14 09:21:43;;;;;;;62.23;26.43;;;;;;;6.19;100.00;101734.13;7394844;19;20511;-48
2021/12/14 09:24:16;;;;;;;64.17;28.07;;;;;;;6.21;100.00;101734.25;7400860;19;20842;-45
2021/12/14 09:26:49;;;;;;;67.03;29.63;;;;;;;6.24;100.00;101731.91;7393609;19;20413;-45
2021/12/14 09:29:23;;;;;;;71.87;28.10;;;;;;;6.29;100.00;101737.34;7400613;19;20422;-44
2021/12/14 09:31:56;;;;;;;66.73;27.80;;;;;;;6.30;100.00;101737.47;7399787;19;20853;-45
2021/12/14 09:34:32;;;;;;;52.60;19.00;;;;;;;6.25;100.00;101745.63;7393768;19;20392;-48
2021/12/14 09:37:02;;;;;;;70.10;28.77;;;;;;;6.32;100.00;101751.28;7398636;19;20483;-49
2021/12/14 09:39:34;;;;;;;69.90;28.20;;;;;;;6.34;100.00;101752.31;7398739;19;20388;-45
2021/12/14 09:42:08;;;;;;;73.83;29.17;;;;;;;6.39;100.00;101759.44;7400013;19;20398;-44
2021/12/14 09:44:38;;;;;;;71.33;26.67;;;;;;;6.34;100.00;101760.00;7394616;19;20846;-46
2021/12/14 09:47:12;;;;;;;61.37;24.50;;;;;;;6.32;100.00;101761.56;7398140;19;20436;-47
2021/12/14 09:49:46;;;;;;;52.13;22.23;;;;;;;6.36;100.00;101770.34;7394462;19;20430;-46
2021/12/14 09:52:21;;;;;;;65.27;27.77;;;;;;;6.38;100.00;101767.91;7398852;19;20502;-48
2021/12/14 09:54:51;;;;;;;74.43;29.37;;;;;;;6.40;100.00;101772.38;7393518;19;20486;-46
2021/12/14 09:57:23;;;;;;;59.23;24.50;;;;;;;6.40;100.00;101779.19;7398284;19;20425;-46
2021/12/14 09:59:55;;;;;;;73.80;31.50;;;;;;;6.44;100.00;101776.06;7394187;19;20475;-48
2021/12/14 10:02:27;;;;;;;70.00;29.13;;;;;;;6.47;100.00;101776.31;7403421;19;20384;-44
2021/12/14 10:05:02;;;;;;;75.03;29.47;;;;;;;6.45;100.00;101770.16;7393943;19;20410;-46
2021/12/14 10:07:32;;;;;;;77.67;28.90;;;;;;;6.47;100.00;101771.19;7397710;19;20442;-47
2021/12/14 10:10:03;;;;;;;70.07;28.10;;;;;;;6.52;100.00;101775.00;7391585;19;20427;-45
2021/12/14 10:15:34;;;;;;;67.00;26.73;;;;;;;6.46;100.00;101774.53;7392164;19;20495;-46
2021/12/14 10:18:06;;;;;;;77.50;31.87;;;;;;;6.55;100.00;101775.22;7397818;19;20409;-45
2021/12/14 10:20:45;;;;;;;69.50;29.27;;;;;;;6.51;100.00;101772.31;7393819;19;20927;-46
2021/12/14 10:23:16;;;;;;;70.83;30.27;;;;;;;6.55;100.00;101771.75;7399180;19;20398;-46
2021/12/14 10:25:47;;;;;;;69.60;28.37;;;;;;;6.52;100.00;101768.97;7392358;19;20452;-44
2021/12/14 10:28:17;;;;;;;66.07;28.67;;;;;;;6.54;100.00;101776.00;7396338;19;20959;-45
2021/12/14 10:30:54;;;;;;;74.33;31.40;;;;;;;6.57;100.00;101767.63;7393298;19;20873;-45
2021/12/14 10:33:24;;;;;;;72.83;29.50;;;;;;;6.55;100.00;101775.22;7398422;19;20388;-46
2021/12/14 10:36:00;;;;;;;65.17;27.87;;;;;;;6.59;100.00;101769.53;7390805;19;20440;-44
2021/12/14 10:38:37;;;;;;;69.50;29.03;;;;;;;6.54;100.00;101754.56;7396946;19;20870;-45
2021/12/14 10:44:07;;;;;;;72.53;29.27;;;;;;;6.60;100.00;101761.06;7394325;19;20393;-47
2021/12/14 10:46:40;;;;;;;70.87;27.83;;;;;;;6.59;100.00;101768.63;7381677;19;20455;-45
2021/12/14 10:49:10;;;;;;;62.43;25.87;;;;;;;6.57;100.00;101765.06;7398457;19;20437;-47
2021/12/14 10:51:44;;;;;;;65.87;27.63;;;;;;;6.58;100.00;101770.31;7391756;19;20443;-46
2021/12/14 10:54:15;;;;;;;60.57;28.07;;;;;;;6.58;100.00;101759.16;7398271;19;20383;-43
2021/12/14 10:56:49;;;;;;;72.93;28.57;;;;;;;6.60;100.00;101763.63;7389810;19;20459;-45
2021/12/14 10:59:21;;;;;;;66.60;28.07;;;;;;;6.60;100.00;101761.06;7403968;19;20398;-45
2021/12/14 11:01:51;;;;;;;64.40;30.13;;;;;;;6.61;100.00;101752.59;7403614;19;20864;-46
2021/12/14 11:04:34;;;;;;;62.57;27.03;;;;;;;6.61;100.00;101757.72;7405143;19;20384;-46
2021/12/14 11:07:08;;;;;;;55.90;22.77;;;;;;;6.64;100.00;101766.41;7403555;19;20904;-45
2021/12/14 11:09:45;;;;;;;62.90;27.50;;;;;;;6.64;100.00;101774.09;7399333;19;20458;-47
2021/12/14 11:12:24;;;;;;;66.37;27.03;;;;;;;6.65;100.00;101776.78;7405574;19;20468;-46
2021/12/14 11:14:56;;;;;;;66.13;27.97;;;;;;;6.69;100.00;101780.47;7398824;19;20419;-51
2021/12/14 11:20:13;;;;;;;57.70;26.77;;;;;;;6.67;100.00;101776.91;7398122;19;20430;-47
2021/12/14 11:22:50;;;;;;;64.20;27.27;;;;;;;6.70;100.00;101787.38;7405062;19;20449;-44
2021/12/14 11:25:41;;;;;;;59.57;28.00;;;;;;;6.71;100.00;101769.53;7397820;19;20430;-44
2021/12/14 11:28:15;;;;;;;69.77;26.70;;;;;;;6.72;100.00;101778.16;7402512;19;20480;-49
2021/12/14 11:30:49;;;;;;;54.83;25.90;;;;;;;6.69;100.00;101776.25;7398456;19;20878;-46
2021/12/14 11:33:21;;;;;;;62.43;26.30;;;;;;;6.72;100.00;101779.00;7404541;19;20388;-49
2021/12/14 11:35:54;;;;;;;63.20;27.90;;;;;;;6.74;100.00;101786.84;7396496;19;20437;-47
2021/12/14 11:38:33;;;;;;;60.73;27.37;;;;;;;6.71;100.00;101786.59;7403028;19;20419;-49
2021/12/14 11:41:05;;;;;;;60.03;27.30;;;;;;;6.73;100.00;101800.44;7398805;19;20476;-45
2021/12/14 11:43:35;;;;;;;75.87;28.33;;;;;;;6.79;100.00;101806.03;7403724;19;20394;-45
2021/12/14 11:46:09;;;;;;;66.00;30.10;;;;;;;6.83;100.00;101820.84;7397577;19;20677;-45
2021/12/14 11:48:40;;;;;;;67.97;28.33;;;;;;;6.81;100.00;101817.28;7404601;19;20400;-43
2021/12/14 11:51:11;;;;;;;66.03;28.20;;;;;;;6.78;100.00;101811.94;7398409;19;20435;-50
2021/12/14 11:53:50;;;;;;;65.40;29.47;;;;;;;6.82;100.00;101821.63;7407576;19;20396;-46
2021/12/14 11:56:22;;;;;;;63.53;28.40;;;;;;;6.82;100.00;101819.06;7395334;19;20471;-47
2021/12/14 11:58:55;;;;;;;60.30;25.30;;;;;;;6.80;100.00;101818.06;7403980;19;20384;-45
2021/12/14 12:01:28;;;;;;;61.47;26.90;;;;;;;6.80;100.00;101817.16;7397474;19;20431;-47
2021/12/14 12:04:01;;;;;;;61.60;28.30;;;;;;;6.78;100.00;101817.06;7404776;19;20739;-48
2021/12/14 12:06:44;;;;;;;60.43;27.57;;;;;;;6.79;100.00;101812.81;7397208;19;20552;-43
2021/12/14 12:09:31;;;;;;;64.40;28.37;;;;;;;6.82;100.00;101813.94;7402789;19;20654;-47
2021/12/14 12:12:27;;;;;;;55.07;24.23;;;;;;;6.81;100.00;101811.28;7396408;19;20418;-45
2021/12/14 12:14:59;;;;;;;53.83;24.27;;;;;;;6.77;100.00;101799.88;7396595;19;20509;-46
2021/12/14 12:17:37;;;;;;;54.27;24.53;;;;;;;6.74;100.00;101791.97;7400395;19;20455;-51
2021/12/14 12:20:14;;;;;;;56.73;25.03;;;;;;;6.81;100.00;101798.44;7397623;19;20865;-46
2021/12/14 12:22:46;;;;;;;62.07;24.93;;;;;;;6.79;100.00;101798.34;7403538;19;20534;-52
2021/12/14 12:25:22;;;;;;;53.97;25.40;;;;;;;6.80;100.00;101789.84;7397307;19;20428;-53
2021/12/14 12:27:54;;;;;;;54.53;24.27;;;;;;;6.84;100.00;101801.22;7401627;19;20768;-52
2021/12/14 12:30:35;;;;;;;61.30;27.03;;;;;;;6.88;100.00;101796.44;7396067;19;20476;-53
2021/12/14 12:33:16;;;;;;;52.73;23.53;;;;;;;6.94;100.00;101795.09;7403474;19;20450;-47
2021/12/14 12:35:50;;;;;;;58.53;26.20;;;;;;;6.95;100.00;101799.44;7395749;19;20477;-51
2021/12/14 12:38:40;;;;;;;52.93;26.20;;;;;;;6.98;100.00;101799.69;7400801;19;20465;-52
2021/12/14 12:41:17;;;;;;;53.37;24.80;;;;;;;7.02;100.00;101797.44;7397095;19;20419;-49
2021/12/14 12:43:51;;;;;;;50.60;21.97;;;;;;;7.00;100.00;101792.97;7402769;19;20668;-51